METAR Data
IDs: Format: Raw Decoded Include TAF

Data at: 0927 UTC 18 Jan 2019

PAPH 180912Z AUTO 02008KT 10SM SCT009 OVC036 00/M01 A2967 RMK AO2 FZRANO
PAPH 180856Z AUTO 02008KT 10SM OVC007 00/M01 A2967 RMK AO2 CIG 006V009 SLP051 T00001006 51007 FZRANO
PAPH 180822Z AUTO 02007KT 10SM OVC005 00/M01 A2967 RMK AO2 FZRANO
PAPH 180756Z AUTO 02008KT 10SM OVC003 00/00 A2967 RMK AO2 SLP051 T00000000 400441006 FZRANO
PAPH 180656Z AUTO 02008KT 9SM OVC003 00/00 A2967 RMK AO2 SLP049 T00000000 FZRANO
PAPH 180643Z AUTO 02009KT 8SM BKN003 OVC009 00/00 A2966 RMK AO2 FZRANO
PAPH 180615Z AUTO 01010KT 8SM OVC009 00/00 A2966 RMK AO2 CIG 003V010 FZRANO
PAPH 180556Z AUTO 01010KT 6SM BR OVC005 00/00 A2965 RMK AO2 CIG 003V007 SLP045 60001 T00000000 10006 20000 53004 FZRANO
PAPH 180519Z AUTO 01011KT 8SM OVC005 00/00 A2965 RMK AO2 FZRANO
PAPH 180456Z AUTO 01008KT 6SM BR OVC003 00/00 A2965 RMK AO2 SLP042 T00000000 FZRANO
PAPH 180433Z AUTO 01008KT 9SM OVC003 00/00 A2964 RMK AO2 FZRANO
PAPH 180420Z AUTO 02009KT 8SM BKN005 OVC025 00/00 A2964 RMK AO2 CIG 003V007 FZRANO
PAPH 180404Z AUTO 02008KT 6SM BR SCT002 BKN007 OVC025 00/00 A2964 RMK AO2 FZRANO
PAPH 180356Z AUTO 02008KT 6SM BR BKN002 BKN007 OVC065 00/00 A2964 RMK AO2 UPE04 SLP042 P0000 T00000000 FZRANO
PAPH 180347Z AUTO 36007KT 6SM BR BKN002 BKN007 OVC021 01/00 A2964 RMK AO2 UPE04 P0000 FZRANO
PAPH 180337Z AUTO 36006KT 3SM BR BKN004 BKN007 OVC021 00/00 A2964 RMK AO2 UPE04 CIG 002V005 P0000 FZRANO
PAPH 180333Z AUTO 36006KT 2 1/2SM BR SCT004 BKN007 OVC021 00/00 A2964 RMK AO2 UPE04 P0000 FZRANO
PAPH 180323Z AUTO 01007KT 1 1/4SM BR BKN004 OVC021 00/00 A2964 RMK AO2 UPE04 P0000 FZRANO
PAPH 180318Z AUTO 36006KT 3/4SM BR BKN004 OVC021 00/00 A2964 RMK AO2 UPE04 P0000 FZRANO
PAPH 180311Z AUTO 35006KT 1/2SM FG OVC004 00/00 A2964 RMK AO2 UPE04 P0000 FZRANO
PAPH 180305Z AUTO 35006KT 1/4SM FG BKN002 BKN009 OVC030 00/00 A2964 RMK AO2 UPE04 P0000 FZRANO
PAPH 180256Z AUTO 36005KT 1/2SM UP FG BKN002 BKN011 OVC025 00/00 A2964 RMK AO2 SLP041 P0000 60001 T00000000 52003 FZRANO
PAPH 180254Z AUTO 36006KT 1/2SM UP FG BKN002 BKN011 OVC025 00/00 A2964 RMK AO2 P0000 FZRANO
PAPH 180251Z AUTO 36006KT 1SM UP BR SCT002 BKN011 OVC030 00/00 A2964 RMK AO2 P0000 FZRANO
PAPH 180247Z AUTO 36005KT 2 1/2SM UP BR FEW002 BKN011 OVC030 00/00 A2964 RMK AO2 P0000 FZRANO
PAPH 180224Z AUTO 35003KT 6SM UP BR FEW008 OVC016 01/00 A2964 RMK AO2 P0000 FZRANO
PAPH 180218Z AUTO 36004KT 10SM SCT010 OVC018 01/00 A2964 RMK AO2 UPE16 P0000 FZRANO
PAPH 180156Z AUTO 00000KT 10SM UP OVC008 00/00 A2964 RMK AO2 CIG 003V010 SLP040 P0000 T00000000 FZRANO
PAPH 180121Z AUTO 10003KT 3SM UP BR BKN008 OVC014 00/00 A2964 RMK AO2 CIG 004V010 P0000 FZRANO
PAPH 180110Z AUTO 00000KT 2SM UP BR SCT006 BKN011 OVC023 00/00 A2963 RMK AO2 P0000 FZRANO
PAPH 180107Z AUTO 00000KT 1 1/2SM UP BR FEW003 BKN014 OVC021 00/00 A2963 RMK AO2 P0000 FZRANO
PAPH 180056Z AUTO 10003KT 1SM UP BR FEW003 BKN012 OVC018 00/00 A2964 RMK AO2 RAE29UPB17 SLP039 P0001 T00000000 FZRANO
PAPH 180050Z AUTO 00000KT 1 1/4SM UP BR FEW003 BKN014 OVC019 00/00 A2964 RMK AO2 RAE29UPB17 P0001 FZRANO
PAPH 180036Z AUTO 00000KT 1SM UP BR SCT003 BKN015 OVC019 00/00 A2963 RMK AO2 RAE29UPB17 P0001 FZRANO
PAPH 180026Z AUTO 14004KT 3/4SM -RA BR BKN003 OVC013 00/00 A2963 RMK AO2 UPB17E19 P0000 FZRANO
PAPH 172356Z AUTO 00000KT 1/2SM -RA FG OVC003 01/01 A2963 RMK AO2 UPE32RAB32 SLP038 P0000 60000 T00060006 10011 21006 58002 FZRANO
PAPH 172340Z AUTO 00000KT 1/2SM -RA FG OVC003 01/01 A2964 RMK AO2 UPE32RAB32 P0000 FZRANO
PAPH 172256Z AUTO 22004KT 1/4SM UP FG OVC003 01/00 A2964 RMK AO2 SLP039 P0000 T00060000 FZRANO
PAPH 172156Z AUTO 23005KT 1/4SM UP FG OVC003 00/M01 A2964 RMK AO2 UPB23 SLP042 P0000 T00001006 FZRANO
PAPH 172138Z AUTO 23006KT 1/4SM UP FG OVC003 00/M01 A2965 RMK AO2 UPB23 P0000 FZRANO
PAPH 172056Z AUTO 18004KT 1/4SM FG OVC001 00/M01 A2964 RMK AO2 SLP040 T00001006 51017 FZRANO
PAPH 172031Z AUTO 20005KT 1/4SM FG OVC001 00/M01 A2963 RMK AO2 FZRANO
PAPH 172015Z AUTO 20004KT 3/4SM BR BKN001 M01/M01 A2963 RMK AO2 FZRANO
PAPH 172011Z AUTO 18005KT 1 1/4SM BR BKN001 M01/M01 A2963 RMK AO2 FZRANO
PAPH 172006Z AUTO 18004KT 2 1/2SM BR SCT001 M01/M01 A2963 RMK AO2 FZRANO
PAPH 171956Z AUTO 22003KT 6SM BR CLR M01/M02 A2963 RMK AO2 SLP035 T10061017 FZRANO
PAPH 171856Z AUTO 32004KT 9SM CLR M01/M02 A2961 RMK AO2 SLP031 T10061017 FZRANO
PAPH 171756Z AUTO 06004KT 10SM CLR 01/01 A2959 RMK AO2 SLP023 60000 T00110006 10039 20000 53008 FZRANO
PAPH 171656Z AUTO 10003KT 10SM CLR 00/M01 A2958 RMK AO2 SLP020 T00001011 FZRANO
PAPH 171606Z AUTO 05005KT 10SM FEW029 01/00 A2957 RMK AO2 FZRANO
PAPH 171556Z AUTO 05007KT 10SM BKN029 01/00 A2957 RMK AO2 SLP016 T00110000 FZRANO
PAPH 171456Z AUTO 03004KT 10SM SCT037 02/00 A2957 RMK AO2 RAB20E31 SLP015 P0000 60000 T00170000 51014 FZRANO
PAPH 171434Z AUTO 00000KT 10SM SCT023 BKN033 BKN055 03/01 A2956 RMK AO2 RAB20E31 P0000
PAPH 171356Z AUTO 00000KT 10SM OVC025 03/01 A2956 RMK AO2 SLP013 T00280006
PAPH 171333Z AUTO 08006KT 10SM BKN025 BKN030 OVC048 03/01 A2955 RMK AO2
PAPH 171256Z AUTO 09006KT 10SM BKN036 03/01 A2954 RMK AO2 SLP005 T00330006
PAPH 171146Z AUTO 13006KT 10SM SCT025 BKN033 04/01 A2952 RMK AO2
PAPH 171109Z AUTO 14016G22KT 10SM BKN027 BKN037 04/01 A2949 RMK AO2
PAPH 171056Z AUTO 14015G22KT 10SM FEW027 SCT037 04/01 A2949 RMK AO2 SLP990 T00440011
PAPH 170956Z AUTO 15012KT 10SM SCT028 BKN036 03/01 A2948 RMK AO2 RAB41E56 SLP987 P0000 T00330011
PAPH 170856Z AUTO 13012KT 10SM FEW027 SCT048 04/01 A2946 RMK AO2 SLP979 T00390006 53029
PAPH 170849Z AUTO 12010KT 10SM SCT025 BKN048 04/01 A2946 RMK AO2
PAPH 170825Z AUTO 11009KT 10SM BKN027 BKN035 04/01 A2945 RMK AO2
PAPH 170756Z AUTO 12013KT 10SM FEW120 04/01 A2943 RMK AO2 SLP969 T00390011 400391028
PAPH 170726Z AUTO 06007KT 10SM BKN026 BKN032 03/01 A2942 RMK AO2
PAPH 170656Z AUTO 12011KT 10SM FEW033 03/01 A2940 RMK AO2 SLP959 T00330011
PAPH 170556Z AUTO 12012KT 10SM FEW024 SCT032 BKN060 03/02 A2937 RMK AO2 RAB25E44UPB44E47 SLP950 P0000 60000 T00330017 10039 20006 51014
PAPH 170553Z AUTO 12012KT 10SM SCT024 SCT035 BKN045 03/02 A2937 RMK AO2 RAB25E44UPB44E47 P0000
PAPH 170545Z AUTO 11010KT 10SM UP BKN024 BKN035 OVC060 03/02 A2937 RMK AO2 RAB25E44UPB44 P0000
PAPH 170456Z AUTO 11008KT 10SM FEW042 OVC055 04/01 A2936 RMK AO2 SLP944 T00390011
PAPH 170356Z AUTO 13011KT 10SM FEW055 03/01 A2933 RMK AO2 RAE24UPB00E03 SLP936 P0000 T00330011
PAPH 170256Z AUTO 09009KT 10SM -RA SCT025 OVC033 03/02 A2931 RMK AO2 SLP928 P0000 60000 T00280017 53004
PAPH 170156Z AUTO 04008KT 10SM -RA SCT028 OVC038 02/01 A2930 RMK AO2 UPB00E41RAB41 SLP924 P0000 T00170011 FZRANO
PAPH 170120Z AUTO 04012KT 10SM UP SCT003 BKN039 OVC048 01/01 A2929 RMK AO2 UPB00 P0000 FZRANO
PAPH 170056Z AUTO 04012KT 10SM OVC003 01/01 A2928 RMK AO2 UPE2358 SLP918 P0000 T00060006 FZRANO
PAPH 170020Z AUTO 36005KT 6SM BR OVC003 01/00 A2930 RMK AO2 UPE2358 P0000 FZRANO
PAPH 162356Z AUTO 02008KT 4SM UP BR BKN005 OVC012 01/00 A2930 RMK AO2 RAB34E37 CIG 003V010 SLP924 P0001 60005 T00060000 10006 21006 58015 FZRANO
PAPH 162351Z AUTO 02007KT 3SM UP BR BKN008 OVC013 01/00 A2930 RMK AO2 RAB34E37 CIG 006V010 P0001 FZRANO
PAPH 162316Z AUTO 03010KT 2SM UP BR FEW003 OVC014 00/00 A2931 RMK AO2 P0001 FZRANO
PAPH 162309Z AUTO 03010KT 3SM UP BR SCT003 OVC014 00/M01 A2931 RMK AO2 P0001 FZRANO
PAPH 162256Z AUTO 03011KT 10SM UP BKN003 OVC014 00/M01 A2932 RMK AO2 UPE06B52SNB06E52 SLP931 P0003 T00001006 FZRANO
PAPH 162243Z AUTO 02008KT 6SM -SN BR BKN003 BKN010 OVC021 00/M01 A2932 RMK AO2 UPE06SNB06 P0002 FZRANO
PAPH 162235Z AUTO 03009KT 3SM -SN BR SCT005 BKN010 OVC024 00/M01 A2932 RMK AO2 UPE06SNB06 CIG 008V013 P0001 FZRANO
PAPH 162229Z AUTO 02009KT 2 1/2SM -SN BR FEW005 OVC019 00/M01 A2933 RMK AO2 VIS 1 3/4V5 UPE06SNB06 P0001 FZRANO
PAPH 162156Z AUTO 02010KT 10SM UP BKN020 BKN026 OVC039 00/M01 A2933 RMK AO2 SLP935 P0000 T00001006 FZRANO
PAPH 162130Z AUTO 02009KT 10SM UP BKN020 BKN039 OVC048 00/M01 A2934 RMK AO2 P0000 FZRANO